sensor_id;sensor_type;location;lat;lon;timestamp;P1;durP1;ratioP1;P2;durP2;ratioP2
69856;SDS011;57147;53.582;10.112;2024-03-06T00:03:56;11.60;;;7.22;;
69856;SDS011;57147;53.582;10.112;2024-03-06T00:08:57;11.23;;;6.20;;
69856;SDS011;57147;53.582;10.112;2024-03-06T00:13:57;11.73;;;6.60;;
69856;SDS011;57147;53.582;10.112;2024-03-06T00:18:57;9.27;;;6.57;;
69856;SDS011;57147;53.582;10.112;2024-03-06T00:23:58;9.73;;;6.47;;
69856;SDS011;57147;53.582;10.112;2024-03-06T00:28:58;13.60;;;7.50;;
69856;SDS011;57147;53.582;10.112;2024-03-06T00:33:58;11.15;;;6.97;;
69856;SDS011;57147;53.582;10.112;2024-03-06T00:38:58;9.85;;;5.38;;
69856;SDS011;57147;53.582;10.112;2024-03-06T00:43:59;9.85;;;6.88;;
69856;SDS011;57147;53.582;10.112;2024-03-06T00:48:59;8.68;;;6.10;;
69856;SDS011;57147;53.582;10.112;2024-03-06T00:53:59;9.80;;;6.13;;
69856;SDS011;57147;53.582;10.112;2024-03-06T00:58:59;12.13;;;7.35;;
69856;SDS011;57147;53.582;10.112;2024-03-06T01:04:00;9.38;;;6.13;;
69856;SDS011;57147;53.582;10.112;2024-03-06T01:09:00;9.40;;;5.80;;
69856;SDS011;57147;53.582;10.112;2024-03-06T01:14:00;8.68;;;5.03;;
69856;SDS011;57147;53.582;10.112;2024-03-06T01:19:00;7.95;;;4.88;;
69856;SDS011;57147;53.582;10.112;2024-03-06T01:24:01;9.30;;;5.88;;
69856;SDS011;57147;53.582;10.112;2024-03-06T01:29:01;9.93;;;6.60;;
69856;SDS011;57147;53.582;10.112;2024-03-06T01:34:02;10.38;;;6.85;;
69856;SDS011;57147;53.582;10.112;2024-03-06T01:39:02;10.83;;;6.37;;
69856;SDS011;57147;53.582;10.112;2024-03-06T01:44:03;10.13;;;6.03;;
69856;SDS011;57147;53.582;10.112;2024-03-06T01:49:03;10.27;;;5.53;;
69856;SDS011;57147;53.582;10.112;2024-03-06T01:54:03;11.87;;;7.33;;
69856;SDS011;57147;53.582;10.112;2024-03-06T01:59:04;13.18;;;7.85;;
69856;SDS011;57147;53.582;10.112;2024-03-06T02:04:05;12.17;;;6.70;;
69856;SDS011;57147;53.582;10.112;2024-03-06T02:09:08;8.02;;;5.05;;
69856;SDS011;57147;53.582;10.112;2024-03-06T02:14:08;9.77;;;6.70;;
69856;SDS011;57147;53.582;10.112;2024-03-06T02:19:08;10.82;;;6.47;;
69856;SDS011;57147;53.582;10.112;2024-03-06T02:24:09;10.57;;;5.55;;
69856;SDS011;57147;53.582;10.112;2024-03-06T02:29:10;8.07;;;6.63;;
69856;SDS011;57147;53.582;10.112;2024-03-06T02:34:10;9.88;;;6.07;;
69856;SDS011;57147;53.582;10.112;2024-03-06T02:39:10;9.40;;;5.47;;
69856;SDS011;57147;53.582;10.112;2024-03-06T02:44:10;7.60;;;5.57;;
69856;SDS011;57147;53.582;10.112;2024-03-06T02:49:11;8.05;;;5.30;;
69856;SDS011;57147;53.582;10.112;2024-03-06T02:54:11;7.03;;;4.63;;
69856;SDS011;57147;53.582;10.112;2024-03-06T02:59:11;9.90;;;4.93;;
69856;SDS011;57147;53.582;10.112;2024-03-06T03:04:12;8.30;;;5.80;;
69856;SDS011;57147;53.582;10.112;2024-03-06T03:09:12;8.98;;;5.28;;
69856;SDS011;57147;53.582;10.112;2024-03-06T03:14:13;7.88;;;5.35;;
69856;SDS011;57147;53.582;10.112;2024-03-06T03:19:13;6.88;;;4.85;;
69856;SDS011;57147;53.582;10.112;2024-03-06T03:24:13;9.30;;;4.70;;
69856;SDS011;57147;53.582;10.112;2024-03-06T03:29:13;8.10;;;4.63;;
69856;SDS011;57147;53.582;10.112;2024-03-06T03:34:14;9.25;;;4.90;;
69856;SDS011;57147;53.582;10.112;2024-03-06T03:39:14;10.40;;;5.63;;
69856;SDS011;57147;53.582;10.112;2024-03-06T03:44:15;10.83;;;4.80;;
69856;SDS011;57147;53.582;10.112;2024-03-06T03:49:16;7.93;;;4.68;;
69856;SDS011;57147;53.582;10.112;2024-03-06T03:54:16;7.68;;;4.82;;
69856;SDS011;57147;53.582;10.112;2024-03-06T03:59:17;6.70;;;4.87;;
69856;SDS011;57147;53.582;10.112;2024-03-06T04:04:17;6.93;;;5.07;;
69856;SDS011;57147;53.582;10.112;2024-03-06T04:09:17;7.73;;;4.57;;
69856;SDS011;57147;53.582;10.112;2024-03-06T04:14:17;6.55;;;4.40;;
69856;SDS011;57147;53.582;10.112;2024-03-06T04:19:18;6.75;;;4.43;;
69856;SDS011;57147;53.582;10.112;2024-03-06T04:24:18;6.93;;;4.73;;
69856;SDS011;57147;53.582;10.112;2024-03-06T04:29:18;7.53;;;4.93;;
69856;SDS011;57147;53.582;10.112;2024-03-06T04:34:18;7.35;;;5.45;;
69856;SDS011;57147;53.582;10.112;2024-03-06T04:39:19;7.10;;;3.85;;
69856;SDS011;57147;53.582;10.112;2024-03-06T04:44:19;6.03;;;3.97;;
69856;SDS011;57147;53.582;10.112;2024-03-06T04:49:19;6.90;;;4.27;;
69856;SDS011;57147;53.582;10.112;2024-03-06T04:54:20;8.60;;;6.70;;
69856;SDS011;57147;53.582;10.112;2024-03-06T04:59:20;7.45;;;4.68;;
69856;SDS011;57147;53.582;10.112;2024-03-06T05:04:20;7.27;;;5.17;;
69856;SDS011;57147;53.582;10.112;2024-03-06T05:09:20;7.20;;;4.50;;
69856;SDS011;57147;53.582;10.112;2024-03-06T05:14:21;8.23;;;4.38;;
69856;SDS011;57147;53.582;10.112;2024-03-06T05:19:21;6.70;;;3.97;;
69856;SDS011;57147;53.582;10.112;2024-03-06T05:24:21;8.48;;;5.78;;
69856;SDS011;57147;53.582;10.112;2024-03-06T05:29:21;7.32;;;5.05;;
69856;SDS011;57147;53.582;10.112;2024-03-06T05:34:22;9.55;;;5.20;;
69856;SDS011;57147;53.582;10.112;2024-03-06T05:39:22;7.82;;;4.90;;
69856;SDS011;57147;53.582;10.112;2024-03-06T05:44:23;8.57;;;5.63;;
69856;SDS011;57147;53.582;10.112;2024-03-06T05:49:23;10.48;;;5.75;;
69856;SDS011;57147;53.582;10.112;2024-03-06T05:54:23;7.50;;;5.20;;
69856;SDS011;57147;53.582;10.112;2024-03-06T05:59:23;7.43;;;5.63;;
69856;SDS011;57147;53.582;10.112;2024-03-06T06:04:24;8.23;;;4.55;;
69856;SDS011;57147;53.582;10.112;2024-03-06T06:09:24;9.05;;;6.32;;
69856;SDS011;57147;53.582;10.112;2024-03-06T06:14:24;7.97;;;5.50;;
69856;SDS011;57147;53.582;10.112;2024-03-06T06:19:24;9.77;;;5.43;;
69856;SDS011;57147;53.582;10.112;2024-03-06T06:24:25;7.68;;;6.22;;
69856;SDS011;57147;53.582;10.112;2024-03-06T06:29:25;7.93;;;5.90;;
69856;SDS011;57147;53.582;10.112;2024-03-06T06:34:25;9.60;;;6.28;;
69856;SDS011;57147;53.582;10.112;2024-03-06T06:39:25;7.30;;;5.60;;
69856;SDS011;57147;53.582;10.112;2024-03-06T06:44:26;10.20;;;6.82;;
69856;SDS011;57147;53.582;10.112;2024-03-06T06:49:26;15.85;;;8.50;;
69856;SDS011;57147;53.582;10.112;2024-03-06T06:54:26;11.57;;;7.65;;
69856;SDS011;57147;53.582;10.112;2024-03-06T06:59:26;8.45;;;6.03;;
69856;SDS011;57147;53.582;10.112;2024-03-06T07:04:27;9.35;;;6.05;;
69856;SDS011;57147;53.582;10.112;2024-03-06T07:09:27;7.88;;;5.43;;
69856;SDS011;57147;53.582;10.112;2024-03-06T07:14:27;7.50;;;5.40;;
69856;SDS011;57147;53.582;10.112;2024-03-06T07:19:27;8.85;;;5.45;;
69856;SDS011;57147;53.582;10.112;2024-03-06T07:24:27;7.43;;;4.82;;
69856;SDS011;57147;53.582;10.112;2024-03-06T07:29:28;7.68;;;4.35;;
69856;SDS011;57147;53.582;10.112;2024-03-06T07:34:28;6.72;;;5.10;;
69856;SDS011;57147;53.582;10.112;2024-03-06T07:39:28;6.78;;;4.85;;
69856;SDS011;57147;53.582;10.112;2024-03-06T07:44:28;6.82;;;4.70;;
69856;SDS011;57147;53.582;10.112;2024-03-06T07:49:29;5.78;;;4.63;;
69856;SDS011;57147;53.582;10.112;2024-03-06T07:54:29;6.03;;;4.45;;
69856;SDS011;57147;53.582;10.112;2024-03-06T07:59:30;7.78;;;3.85;;
69856;SDS011;57147;53.582;10.112;2024-03-06T08:04:30;7.30;;;4.90;;
69856;SDS011;57147;53.582;10.112;2024-03-06T08:09:31;8.35;;;4.95;;
69856;SDS011;57147;53.582;10.112;2024-03-06T08:14:31;5.10;;;3.58;;
69856;SDS011;57147;53.582;10.112;2024-03-06T08:19:31;5.50;;;3.72;;
69856;SDS011;57147;53.582;10.112;2024-03-06T08:24:31;8.27;;;4.65;;
69856;SDS011;57147;53.582;10.112;2024-03-06T08:29:32;8.35;;;5.47;;
69856;SDS011;57147;53.582;10.112;2024-03-06T08:34:32;6.80;;;3.97;;
69856;SDS011;57147;53.582;10.112;2024-03-06T08:39:32;7.10;;;4.50;;
69856;SDS011;57147;53.582;10.112;2024-03-06T08:44:32;5.93;;;4.22;;
69856;SDS011;57147;53.582;10.112;2024-03-06T08:49:32;6.72;;;4.15;;
69856;SDS011;57147;53.582;10.112;2024-03-06T08:54:33;7.88;;;4.63;;
69856;SDS011;57147;53.582;10.112;2024-03-06T08:59:33;5.38;;;4.03;;
69856;SDS011;57147;53.582;10.112;2024-03-06T09:04:34;7.05;;;4.97;;
69856;SDS011;57147;53.582;10.112;2024-03-06T09:09:34;6.07;;;3.63;;
69856;SDS011;57147;53.582;10.112;2024-03-06T09:14:36;7.18;;;4.47;;
69856;SDS011;57147;53.582;10.112;2024-03-06T09:19:39;8.40;;;5.65;;
69856;SDS011;57147;53.582;10.112;2024-03-06T09:24:40;6.68;;;4.30;;
69856;SDS011;57147;53.582;10.112;2024-03-06T09:29:40;5.78;;;3.65;;
69856;SDS011;57147;53.582;10.112;2024-03-06T09:34:41;7.00;;;4.72;;
69856;SDS011;57147;53.582;10.112;2024-03-06T09:39:41;7.35;;;5.00;;
69856;SDS011;57147;53.582;10.112;2024-03-06T09:44:42;6.93;;;4.93;;
69856;SDS011;57147;53.582;10.112;2024-03-06T09:49:42;7.80;;;5.30;;
69856;SDS011;57147;53.582;10.112;2024-03-06T09:54:42;7.50;;;4.93;;
69856;SDS011;57147;53.582;10.112;2024-03-06T09:59:43;9.02;;;4.28;;
69856;SDS011;57147;53.582;10.112;2024-03-06T10:04:43;6.93;;;5.53;;
69856;SDS011;57147;53.582;10.112;2024-03-06T10:09:43;8.07;;;5.65;;
69856;SDS011;57147;53.582;10.112;2024-03-06T10:14:50;8.57;;;5.82;;
69856;SDS011;57147;53.582;10.112;2024-03-06T10:19:51;8.18;;;5.70;;
69856;SDS011;57147;53.582;10.112;2024-03-06T10:24:54;8.20;;;6.45;;
69856;SDS011;57147;53.582;10.112;2024-03-06T10:30:04;9.95;;;6.45;;
69856;SDS011;57147;53.582;10.112;2024-03-06T10:35:05;8.30;;;4.82;;
69856;SDS011;57147;53.582;10.112;2024-03-06T10:40:06;10.38;;;7.18;;
69856;SDS011;57147;53.582;10.112;2024-03-06T10:45:10;9.60;;;6.88;;
69856;SDS011;57147;53.582;10.112;2024-03-06T10:50:14;9.73;;;6.65;;
69856;SDS011;57147;53.582;10.112;2024-03-06T10:55:15;8.68;;;5.57;;
69856;SDS011;57147;53.582;10.112;2024-03-06T11:00:16;8.10;;;6.25;;
69856;SDS011;57147;53.582;10.112;2024-03-06T11:05:17;10.37;;;6.10;;
69856;SDS011;57147;53.582;10.112;2024-03-06T11:10:30;8.20;;;6.07;;
69856;SDS011;57147;53.582;10.112;2024-03-06T11:15:31;9.32;;;5.85;;
69856;SDS011;57147;53.582;10.112;2024-03-06T11:20:35;17.75;;;9.35;;
69856;SDS011;57147;53.582;10.112;2024-03-06T11:30:57;11.65;;;7.35;;
69856;SDS011;57147;53.582;10.112;2024-03-06T11:41:25;6.47;;;4.72;;
69856;SDS011;57147;53.582;10.112;2024-03-06T11:46:46;9.48;;;6.00;;
69856;SDS011;57147;53.582;10.112;2024-03-06T11:52:08;8.23;;;4.88;;
69856;SDS011;57147;53.582;10.112;2024-03-06T11:57:09;11.75;;;7.20;;
69856;SDS011;57147;53.582;10.112;2024-03-06T12:02:09;8.53;;;5.57;;
69856;SDS011;57147;53.582;10.112;2024-03-06T12:07:10;8.45;;;4.65;;
69856;SDS011;57147;53.582;10.112;2024-03-06T12:12:10;9.07;;;5.73;;
69856;SDS011;57147;53.582;10.112;2024-03-06T12:17:11;9.30;;;6.68;;
69856;SDS011;57147;53.582;10.112;2024-03-06T12:22:13;8.30;;;5.68;;
69856;SDS011;57147;53.582;10.112;2024-03-06T12:27:13;11.98;;;6.70;;
69856;SDS011;57147;53.582;10.112;2024-03-06T12:32:17;8.38;;;5.75;;
69856;SDS011;57147;53.582;10.112;2024-03-06T12:37:17;8.35;;;5.63;;
69856;SDS011;57147;53.582;10.112;2024-03-06T12:42:18;10.17;;;7.20;;
69856;SDS011;57147;53.582;10.112;2024-03-06T12:47:18;10.60;;;6.47;;
69856;SDS011;57147;53.582;10.112;2024-03-06T12:52:18;9.40;;;5.93;;
69856;SDS011;57147;53.582;10.112;2024-03-06T12:57:18;7.85;;;5.28;;
69856;SDS011;57147;53.582;10.112;2024-03-06T13:02:19;8.00;;;6.00;;
69856;SDS011;57147;53.582;10.112;2024-03-06T13:07:19;8.05;;;5.85;;
69856;SDS011;57147;53.582;10.112;2024-03-06T13:12:19;10.65;;;5.18;;
69856;SDS011;57147;53.582;10.112;2024-03-06T13:17:20;9.60;;;5.35;;
69856;SDS011;57147;53.582;10.112;2024-03-06T13:22:20;11.40;;;6.80;;
69856;SDS011;57147;53.582;10.112;2024-03-06T13:27:20;13.88;;;5.68;;
69856;SDS011;57147;53.582;10.112;2024-03-06T13:32:20;8.63;;;5.32;;
69856;SDS011;57147;53.582;10.112;2024-03-06T13:37:21;10.32;;;5.18;;
69856;SDS011;57147;53.582;10.112;2024-03-06T13:42:21;8.98;;;6.07;;
69856;SDS011;57147;53.582;10.112;2024-03-06T13:47:21;9.23;;;6.13;;
69856;SDS011;57147;53.582;10.112;2024-03-06T13:52:21;6.60;;;4.22;;
69856;SDS011;57147;53.582;10.112;2024-03-06T13:57:22;9.23;;;5.30;;
69856;SDS011;57147;53.582;10.112;2024-03-06T14:02:22;6.90;;;4.90;;
69856;SDS011;57147;53.582;10.112;2024-03-06T14:07:22;7.50;;;5.07;;
69856;SDS011;57147;53.582;10.112;2024-03-06T14:12:23;8.65;;;4.97;;
69856;SDS011;57147;53.582;10.112;2024-03-06T14:17:23;6.45;;;4.63;;
69856;SDS011;57147;53.582;10.112;2024-03-06T14:22:23;5.97;;;4.43;;
69856;SDS011;57147;53.582;10.112;2024-03-06T14:27:24;5.93;;;5.15;;
69856;SDS011;57147;53.582;10.112;2024-03-06T14:32:24;9.40;;;5.27;;
69856;SDS011;57147;53.582;10.112;2024-03-06T14:37:24;6.78;;;4.75;;
69856;SDS011;57147;53.582;10.112;2024-03-06T14:42:25;7.15;;;5.40;;
69856;SDS011;57147;53.582;10.112;2024-03-06T14:47:25;6.60;;;4.60;;
69856;SDS011;57147;53.582;10.112;2024-03-06T14:52:25;7.15;;;5.65;;
69856;SDS011;57147;53.582;10.112;2024-03-06T14:57:26;5.65;;;4.18;;
69856;SDS011;57147;53.582;10.112;2024-03-06T15:02:26;7.03;;;5.50;;
69856;SDS011;57147;53.582;10.112;2024-03-06T15:07:26;12.03;;;5.83;;
69856;SDS011;57147;53.582;10.112;2024-03-06T15:12:26;6.57;;;4.93;;
69856;SDS011;57147;53.582;10.112;2024-03-06T15:17:27;7.65;;;5.32;;
69856;SDS011;57147;53.582;10.112;2024-03-06T15:22:27;8.33;;;5.73;;
69856;SDS011;57147;53.582;10.112;2024-03-06T15:27:27;6.35;;;4.68;;
69856;SDS011;57147;53.582;10.112;2024-03-06T15:37:54;5.18;;;4.15;;
69856;SDS011;57147;53.582;10.112;2024-03-06T15:42:54;9.90;;;6.25;;
69856;SDS011;57147;53.582;10.112;2024-03-06T15:47:55;6.45;;;4.57;;
69856;SDS011;57147;53.582;10.112;2024-03-06T15:52:55;8.25;;;4.43;;
69856;SDS011;57147;53.582;10.112;2024-03-06T15:57:55;7.13;;;4.95;;
69856;SDS011;57147;53.582;10.112;2024-03-06T16:02:56;8.30;;;4.80;;
69856;SDS011;57147;53.582;10.112;2024-03-06T16:07:59;6.80;;;4.73;;
69856;SDS011;57147;53.582;10.112;2024-03-06T16:13:00;8.60;;;5.88;;
69856;SDS011;57147;53.582;10.112;2024-03-06T16:18:00;7.82;;;5.95;;
69856;SDS011;57147;53.582;10.112;2024-03-06T16:23:01;6.60;;;5.35;;
69856;SDS011;57147;53.582;10.112;2024-03-06T16:28:01;6.85;;;4.68;;
69856;SDS011;57147;53.582;10.112;2024-03-06T16:33:01;10.67;;;6.97;;
69856;SDS011;57147;53.582;10.112;2024-03-06T16:38:02;11.57;;;8.50;;
69856;SDS011;57147;53.582;10.112;2024-03-06T16:43:02;9.82;;;6.85;;
69856;SDS011;57147;53.582;10.112;2024-03-06T16:48:03;9.70;;;7.05;;
69856;SDS011;57147;53.582;10.112;2024-03-06T16:53:04;11.23;;;6.38;;
69856;SDS011;57147;53.582;10.112;2024-03-06T16:58:04;7.53;;;4.90;;
69856;SDS011;57147;53.582;10.112;2024-03-06T17:03:04;7.32;;;5.13;;
69856;SDS011;57147;53.582;10.112;2024-03-06T17:08:05;6.60;;;4.80;;
69856;SDS011;57147;53.582;10.112;2024-03-06T17:13:05;8.35;;;4.72;;
69856;SDS011;57147;53.582;10.112;2024-03-06T17:18:06;7.30;;;5.38;;
69856;SDS011;57147;53.582;10.112;2024-03-06T17:23:06;20.25;;;12.00;;
69856;SDS011;57147;53.582;10.112;2024-03-06T17:28:06;8.38;;;6.25;;
69856;SDS011;57147;53.582;10.112;2024-03-06T17:33:07;7.43;;;5.05;;
69856;SDS011;57147;53.582;10.112;2024-03-06T17:38:07;6.75;;;5.40;;
69856;SDS011;57147;53.582;10.112;2024-03-06T17:43:07;6.18;;;4.78;;
69856;SDS011;57147;53.582;10.112;2024-03-06T17:48:07;6.80;;;5.05;;
69856;SDS011;57147;53.582;10.112;2024-03-06T17:53:08;6.47;;;4.97;;
69856;SDS011;57147;53.582;10.112;2024-03-06T17:58:08;7.07;;;5.05;;
69856;SDS011;57147;53.582;10.112;2024-03-06T18:03:08;14.63;;;9.45;;
69856;SDS011;57147;53.582;10.112;2024-03-06T18:08:08;8.90;;;5.95;;
69856;SDS011;57147;53.582;10.112;2024-03-06T18:13:09;9.35;;;6.53;;
69856;SDS011;57147;53.582;10.112;2024-03-06T18:18:09;6.68;;;5.88;;
69856;SDS011;57147;53.582;10.112;2024-03-06T18:23:09;7.30;;;5.30;;
69856;SDS011;57147;53.582;10.112;2024-03-06T18:28:09;6.93;;;5.65;;
69856;SDS011;57147;53.582;10.112;2024-03-06T18:33:10;7.10;;;6.40;;
69856;SDS011;57147;53.582;10.112;2024-03-06T18:38:10;6.85;;;5.38;;
69856;SDS011;57147;53.582;10.112;2024-03-06T18:43:10;7.32;;;5.90;;
69856;SDS011;57147;53.582;10.112;2024-03-06T18:48:10;10.15;;;6.70;;
69856;SDS011;57147;53.582;10.112;2024-03-06T18:53:12;8.45;;;6.82;;
69856;SDS011;57147;53.582;10.112;2024-03-06T18:58:12;9.55;;;5.82;;
69856;SDS011;57147;53.582;10.112;2024-03-06T19:03:12;8.40;;;5.95;;
69856;SDS011;57147;53.582;10.112;2024-03-06T19:08:13;8.68;;;6.63;;
69856;SDS011;57147;53.582;10.112;2024-03-06T19:13:13;9.73;;;6.97;;
69856;SDS011;57147;53.582;10.112;2024-03-06T19:18:13;11.05;;;8.18;;
69856;SDS011;57147;53.582;10.112;2024-03-06T19:23:14;9.65;;;7.30;;
69856;SDS011;57147;53.582;10.112;2024-03-06T19:28:14;9.90;;;8.02;;
69856;SDS011;57147;53.582;10.112;2024-03-06T19:33:14;8.02;;;6.65;;
69856;SDS011;57147;53.582;10.112;2024-03-06T19:38:14;9.13;;;7.18;;
69856;SDS011;57147;53.582;10.112;2024-03-06T19:43:19;11.90;;;8.20;;
69856;SDS011;57147;53.582;10.112;2024-03-06T19:48:19;9.60;;;8.23;;
69856;SDS011;57147;53.582;10.112;2024-03-06T19:53:20;10.95;;;8.32;;
69856;SDS011;57147;53.582;10.112;2024-03-06T19:58:20;12.93;;;9.03;;
69856;SDS011;57147;53.582;10.112;2024-03-06T20:03:20;10.82;;;8.32;;
69856;SDS011;57147;53.582;10.112;2024-03-06T20:08:21;11.50;;;8.57;;
69856;SDS011;57147;53.582;10.112;2024-03-06T20:13:21;11.43;;;8.32;;
69856;SDS011;57147;53.582;10.112;2024-03-06T20:18:21;14.57;;;8.75;;
69856;SDS011;57147;53.582;10.112;2024-03-06T20:23:21;15.27;;;10.50;;
69856;SDS011;57147;53.582;10.112;2024-03-06T20:28:22;13.77;;;9.82;;
69856;SDS011;57147;53.582;10.112;2024-03-06T20:33:22;16.65;;;10.75;;
69856;SDS011;57147;53.582;10.112;2024-03-06T20:38:22;19.27;;;13.52;;
69856;SDS011;57147;53.582;10.112;2024-03-06T20:43:23;17.60;;;11.03;;
69856;SDS011;57147;53.582;10.112;2024-03-06T20:48:23;16.58;;;10.32;;
69856;SDS011;57147;53.582;10.112;2024-03-06T20:53:23;15.50;;;10.97;;
69856;SDS011;57147;53.582;10.112;2024-03-06T20:58:24;17.70;;;11.60;;
69856;SDS011;57147;53.582;10.112;2024-03-06T21:03:24;18.67;;;11.67;;
69856;SDS011;57147;53.582;10.112;2024-03-06T21:08:24;19.37;;;12.20;;
69856;SDS011;57147;53.582;10.112;2024-03-06T21:13:25;19.17;;;12.50;;
69856;SDS011;57147;53.582;10.112;2024-03-06T21:18:25;19.73;;;13.00;;
69856;SDS011;57147;53.582;10.112;2024-03-06T21:23:25;23.13;;;13.80;;
69856;SDS011;57147;53.582;10.112;2024-03-06T21:28:26;27.77;;;15.73;;
69856;SDS011;57147;53.582;10.112;2024-03-06T21:33:26;35.67;;;20.30;;
69856;SDS011;57147;53.582;10.112;2024-03-06T21:38:26;28.00;;;15.55;;
69856;SDS011;57147;53.582;10.112;2024-03-06T21:43:26;34.33;;;19.10;;
69856;SDS011;57147;53.582;10.112;2024-03-06T21:48:27;30.23;;;17.43;;
69856;SDS011;57147;53.582;10.112;2024-03-06T21:53:27;31.85;;;16.85;;
69856;SDS011;57147;53.582;10.112;2024-03-06T21:58:27;30.52;;;16.45;;
69856;SDS011;57147;53.582;10.112;2024-03-06T22:03:27;28.38;;;16.05;;
69856;SDS011;57147;53.582;10.112;2024-03-06T22:08:28;26.48;;;15.95;;
69856;SDS011;57147;53.582;10.112;2024-03-06T22:13:29;28.25;;;16.58;;
69856;SDS011;57147;53.582;10.112;2024-03-06T22:18:30;29.25;;;16.92;;
69856;SDS011;57147;53.582;10.112;2024-03-06T22:23:33;29.77;;;16.63;;
69856;SDS011;57147;53.582;10.112;2024-03-06T22:28:33;29.80;;;15.80;;
69856;SDS011;57147;53.582;10.112;2024-03-06T22:33:33;26.80;;;16.42;;
69856;SDS011;57147;53.582;10.112;2024-03-06T22:38:33;28.70;;;16.55;;
69856;SDS011;57147;53.582;10.112;2024-03-06T22:43:34;28.03;;;15.70;;
69856;SDS011;57147;53.582;10.112;2024-03-06T22:48:34;31.63;;;15.90;;
69856;SDS011;57147;53.582;10.112;2024-03-06T22:53:35;29.35;;;15.63;;
69856;SDS011;57147;53.582;10.112;2024-03-06T22:58:35;28.73;;;15.50;;
69856;SDS011;57147;53.582;10.112;2024-03-06T23:03:35;27.38;;;16.27;;
69856;SDS011;57147;53.582;10.112;2024-03-06T23:08:36;30.63;;;16.00;;
69856;SDS011;57147;53.582;10.112;2024-03-06T23:13:36;27.92;;;15.75;;
69856;SDS011;57147;53.582;10.112;2024-03-06T23:18:36;29.15;;;16.42;;
69856;SDS011;57147;53.582;10.112;2024-03-06T23:23:36;27.63;;;14.10;;
69856;SDS011;57147;53.582;10.112;2024-03-06T23:28:37;24.90;;;13.40;;
69856;SDS011;57147;53.582;10.112;2024-03-06T23:33:39;25.65;;;14.13;;
69856;SDS011;57147;53.582;10.112;2024-03-06T23:38:39;28.98;;;14.65;;
69856;SDS011;57147;53.582;10.112;2024-03-06T23:43:39;24.20;;;13.02;;
69856;SDS011;57147;53.582;10.112;2024-03-06T23:48:40;23.38;;;13.73;;
69856;SDS011;57147;53.582;10.112;2024-03-06T23:53:40;20.83;;;13.13;;
69856;SDS011;57147;53.582;10.112;2024-03-06T23:58:40;20.53;;;12.23;;
